sensor_id;sensor_type;location;lat;lon;timestamp;pressure;altitude;pressure_sealevel;temperature;humidity
17060;BME280;8646;49.716;9.266;2023-01-29T00:00:36;101566.13;;;2.28;64.85
17060;BME280;8646;49.716;9.266;2023-01-29T00:03:39;101573.25;;;2.29;64.53
17060;BME280;8646;49.716;9.266;2023-01-29T00:06:42;101531.22;;;2.11;63.89
17060;BME280;8646;49.716;9.266;2023-01-29T00:09:44;101555.38;;;2.22;63.78
17060;BME280;8646;49.716;9.266;2023-01-29T00:12:47;101567.09;;;2.33;63.57
17060;BME280;8646;49.716;9.266;2023-01-29T00:15:55;101564.31;;;2.24;63.48
17060;BME280;8646;49.716;9.266;2023-01-29T00:18:59;101569.59;;;2.19;64.19
17060;BME280;8646;49.716;9.266;2023-01-29T00:22:03;101578.53;;;2.21;64.57
17060;BME280;8646;49.716;9.266;2023-01-29T00:25:07;101567.91;;;2.26;64.61
17060;BME280;8646;49.716;9.266;2023-01-29T00:28:10;101545.47;;;2.09;64.59
17060;BME280;8646;49.716;9.266;2023-01-29T00:31:16;101557.19;;;2.23;64.50
17060;BME280;8646;49.716;9.266;2023-01-29T00:34:19;101555.44;;;2.26;64.77
17060;BME280;8646;49.716;9.266;2023-01-29T00:37:23;101561.69;;;2.30;64.76
17060;BME280;8646;49.716;9.266;2023-01-29T00:40:26;101554.66;;;2.35;63.79
17060;BME280;8646;49.716;9.266;2023-01-29T00:43:49;101517.88;;;2.10;64.48
17060;BME280;8646;49.716;9.266;2023-01-29T00:47:10;101550.97;;;2.24;64.74
17060;BME280;8646;49.716;9.266;2023-01-29T00:50:27;101557.19;;;2.24;64.90
17060;BME280;8646;49.716;9.266;2023-01-29T00:53:30;101522.25;;;2.02;64.84
17060;BME280;8646;49.716;9.266;2023-01-29T00:56:34;101557.09;;;2.15;64.52
17060;BME280;8646;49.716;9.266;2023-01-29T00:59:37;101558.03;;;2.19;64.91
17060;BME280;8646;49.716;9.266;2023-01-29T01:02:41;101569.78;;;2.35;62.90
17060;BME280;8646;49.716;9.266;2023-01-29T01:06:05;101550.00;;;2.20;62.26
17060;BME280;8646;49.716;9.266;2023-01-29T01:09:09;101553.66;;;2.25;61.99
17060;BME280;8646;49.716;9.266;2023-01-29T01:12:30;101549.09;;;2.15;62.45
17060;BME280;8646;49.716;9.266;2023-01-29T01:15:38;101541.75;;;1.95;63.58
17060;BME280;8646;49.716;9.266;2023-01-29T01:18:43;101534.63;;;1.97;63.53
17060;BME280;8646;49.716;9.266;2023-01-29T01:21:46;101541.00;;;2.09;63.41
17060;BME280;8646;49.716;9.266;2023-01-29T01:24:48;101534.63;;;1.97;63.35
17060;BME280;8646;49.716;9.266;2023-01-29T01:27:52;101532.78;;;1.91;63.64
17060;BME280;8646;49.716;9.266;2023-01-29T01:30:54;101552.53;;;2.05;63.66
17060;BME280;8646;49.716;9.266;2023-01-29T01:33:59;101545.47;;;2.09;63.86
17060;BME280;8646;49.716;9.266;2023-01-29T01:37:02;101514.22;;;2.02;63.19
17060;BME280;8646;49.716;9.266;2023-01-29T01:40:07;101554.56;;;2.29;62.47
17060;BME280;8646;49.716;9.266;2023-01-29T01:43:13;101476.47;;;1.68;62.65
17060;BME280;8646;49.716;9.266;2023-01-29T01:46:16;101543.63;;;2.05;63.04
17060;BME280;8646;49.716;9.266;2023-01-29T01:49:20;101507.81;;;1.84;63.01
17060;BME280;8646;49.716;9.266;2023-01-29T01:52:24;101542.81;;;2.10;62.46
17060;BME280;8646;49.716;9.266;2023-01-29T01:55:29;101534.72;;;2.06;61.52
17060;BME280;8646;49.716;9.266;2023-01-29T01:58:35;101481.81;;;1.68;61.80
17060;BME280;8646;49.716;9.266;2023-01-29T02:01:40;101531.13;;;2.04;62.34
17060;BME280;8646;49.716;9.266;2023-01-29T02:04:47;101537.38;;;2.04;61.56
17060;BME280;8646;49.716;9.266;2023-01-29T02:08:09;101532.06;;;2.06;61.07
17060;BME280;8646;49.716;9.266;2023-01-29T02:11:29;101520.38;;;1.95;61.15
17060;BME280;8646;49.716;9.266;2023-01-29T02:14:32;101531.06;;;1.96;61.25
17060;BME280;8646;49.716;9.266;2023-01-29T02:17:39;101530.09;;;1.89;61.62
17060;BME280;8646;49.716;9.266;2023-01-29T02:20:48;101530.09;;;1.89;61.29
17060;BME280;8646;49.716;9.266;2023-01-29T02:24:26;101514.06;;;1.88;60.61
17060;BME280;8646;49.716;9.266;2023-01-29T02:28:04;101511.28;;;1.77;61.35
17060;BME280;8646;49.716;9.266;2023-01-29T02:31:16;101512.16;;;1.79;61.56
17060;BME280;8646;49.716;9.266;2023-01-29T02:34:28;101501.38;;;1.67;62.17
17060;BME280;8646;49.716;9.266;2023-01-29T02:37:56;101507.66;;;1.74;62.50
17060;BME280;8646;49.716;9.266;2023-01-29T02:41:05;101506.81;;;1.76;62.51
17060;BME280;8646;49.716;9.266;2023-01-29T02:44:19;101497.84;;;1.70;62.75
17060;BME280;8646;49.716;9.266;2023-01-29T02:47:29;101504.97;;;1.72;62.79
17060;BME280;8646;49.716;9.266;2023-01-29T02:50:37;101502.34;;;1.75;62.81
17060;BME280;8646;49.716;9.266;2023-01-29T02:53:50;101503.22;;;1.74;62.74
17060;BME280;8646;49.716;9.266;2023-01-29T02:56:57;101503.25;;;1.76;62.95
17060;BME280;8646;49.716;9.266;2023-01-29T03:00:06;101500.59;;;1.77;63.18
17060;BME280;8646;49.716;9.266;2023-01-29T03:03:15;101505.97;;;1.80;63.44
17060;BME280;8646;49.716;9.266;2023-01-29T03:06:21;101504.22;;;1.84;63.54
17060;BME280;8646;49.716;9.266;2023-01-29T03:09:31;101504.25;;;1.87;63.02
17060;BME280;8646;49.716;9.266;2023-01-29T03:12:37;101515.81;;;1.84;63.05
17060;BME280;8646;49.716;9.266;2023-01-29T03:15:45;101522.00;;;1.82;63.41
17060;BME280;8646;49.716;9.266;2023-01-29T03:18:54;101523.81;;;1.84;63.67
17060;BME280;8646;49.716;9.266;2023-01-29T03:21:59;101527.41;;;1.86;63.82
17060;BME280;8646;49.716;9.266;2023-01-29T03:25:06;101530.06;;;1.88;63.97
17060;BME280;8646;49.716;9.266;2023-01-29T03:28:28;101529.16;;;1.84;64.19
17060;BME280;8646;49.716;9.266;2023-01-29T03:31:51;101529.16;;;1.84;64.33
17060;BME280;8646;49.716;9.266;2023-01-29T03:35:09;101542.63;;;1.94;64.52
17060;BME280;8646;49.716;9.266;2023-01-29T03:38:14;101547.09;;;1.98;64.06
17060;BME280;8646;49.716;9.266;2023-01-29T03:41:22;101553.25;;;1.90;64.32
17060;BME280;8646;49.716;9.266;2023-01-29T03:44:32;101547.16;;;2.01;63.55
17060;BME280;8646;49.716;9.266;2023-01-29T03:47:43;101539.75;;;1.80;63.89
17060;BME280;8646;49.716;9.266;2023-01-29T03:50:53;101543.38;;;1.83;64.20
17060;BME280;8646;49.716;9.266;2023-01-29T03:54:04;101549.63;;;1.84;63.85
17060;BME280;8646;49.716;9.266;2023-01-29T03:57:12;101543.44;;;1.86;63.21
17060;BME280;8646;49.716;9.266;2023-01-29T04:00:19;101548.72;;;1.83;63.29
17060;BME280;8646;49.716;9.266;2023-01-29T04:03:31;101555.88;;;1.86;62.83
17060;BME280;8646;49.716;9.266;2023-01-29T04:06:36;101564.66;;;1.77;62.95
17060;BME280;8646;49.716;9.266;2023-01-29T04:09:44;101563.75;;;1.75;63.35
17060;BME280;8646;49.716;9.266;2023-01-29T04:12:51;101560.19;;;1.76;63.38
17060;BME280;8646;49.716;9.266;2023-01-29T04:15:57;101553.09;;;1.77;61.86
17060;BME280;8646;49.716;9.266;2023-01-29T04:19:04;101552.91;;;1.62;62.94
17060;BME280;8646;49.716;9.266;2023-01-29T04:22:12;101550.16;;;1.57;63.17
17060;BME280;8646;49.716;9.266;2023-01-29T04:25:18;101545.69;;;1.56;63.43
17060;BME280;8646;49.716;9.266;2023-01-29T04:28:32;101537.81;;;1.65;62.99
17060;BME280;8646;49.716;9.266;2023-01-29T04:31:48;101544.06;;;1.67;62.27
17060;BME280;8646;49.716;9.266;2023-01-29T04:34:59;101544.88;;;1.63;62.12
17060;BME280;8646;49.716;9.266;2023-01-29T04:38:11;101553.75;;;1.59;61.99
17060;BME280;8646;49.716;9.266;2023-01-29T04:41:21;101537.50;;;1.42;63.03
17060;BME280;8646;49.716;9.266;2023-01-29T04:44:34;101529.53;;;1.44;63.13
17060;BME280;8646;49.716;9.266;2023-01-29T04:47:46;101533.13;;;1.47;63.04
17060;BME280;8646;49.716;9.266;2023-01-29T04:50:56;101528.69;;;1.48;63.19
17060;BME280;8646;49.716;9.266;2023-01-29T04:54:07;101519.84;;;1.52;63.21
17060;BME280;8646;49.716;9.266;2023-01-29T04:57:16;101503.84;;;1.52;63.60
17060;BME280;8646;49.716;9.266;2023-01-29T05:00:28;101488.72;;;1.51;63.67
17060;BME280;8646;49.716;9.266;2023-01-29T05:03:34;101491.34;;;1.48;63.88
17060;BME280;8646;49.716;9.266;2023-01-29T05:06:40;101501.06;;;1.43;64.25
17060;BME280;8646;49.716;9.266;2023-01-29T05:09:44;101498.41;;;1.43;64.12
17060;BME280;8646;49.716;9.266;2023-01-29T05:12:51;101487.66;;;1.40;64.46
17060;BME280;8646;49.716;9.266;2023-01-29T05:16:00;101497.44;;;1.39;64.44
17060;BME280;8646;49.716;9.266;2023-01-29T05:19:04;101507.19;;;1.36;64.42
17060;BME280;8646;49.716;9.266;2023-01-29T05:22:10;101507.19;;;1.36;64.42
17060;BME280;8646;49.716;9.266;2023-01-29T05:25:19;101513.44;;;1.36;64.61
17060;BME280;8646;49.716;9.266;2023-01-29T05:28:23;101515.22;;;1.39;64.92
17060;BME280;8646;49.716;9.266;2023-01-29T05:31:26;101518.81;;;1.41;64.94
17060;BME280;8646;49.716;9.266;2023-01-29T05:34:28;101520.66;;;1.45;64.81
17060;BME280;8646;49.716;9.266;2023-01-29T05:37:32;101518.88;;;1.47;64.88
17060;BME280;8646;49.716;9.266;2023-01-29T05:40:36;101521.56;;;1.45;65.00
17060;BME280;8646;49.716;9.266;2023-01-29T05:43:38;101530.38;;;1.41;65.23
17060;BME280;8646;49.716;9.266;2023-01-29T05:46:41;101530.38;;;1.41;65.17
17060;BME280;8646;49.716;9.266;2023-01-29T05:49:44;101524.19;;;1.44;65.48
17060;BME280;8646;49.716;9.266;2023-01-29T05:52:48;101534.13;;;1.54;64.40
17060;BME280;8646;49.716;9.266;2023-01-29T05:55:51;101530.53;;;1.52;64.67
17060;BME280;8646;49.716;9.266;2023-01-29T05:58:54;101523.34;;;1.48;64.91
17060;BME280;8646;49.716;9.266;2023-01-29T06:01:56;101523.38;;;1.49;64.85
17060;BME280;8646;49.716;9.266;2023-01-29T06:04:59;101523.44;;;1.54;65.03
17060;BME280;8646;49.716;9.266;2023-01-29T06:08:05;101527.03;;;1.58;64.69
17060;BME280;8646;49.716;9.266;2023-01-29T06:11:09;101526.13;;;1.57;64.33
17060;BME280;8646;49.716;9.266;2023-01-29T06:14:12;101527.91;;;1.57;63.97
17060;BME280;8646;49.716;9.266;2023-01-29T06:17:14;101532.34;;;1.56;63.76
17060;BME280;8646;49.716;9.266;2023-01-29T06:20:17;101543.91;;;1.57;62.83
17060;BME280;8646;49.716;9.266;2023-01-29T06:23:21;101546.56;;;1.53;62.80
17060;BME280;8646;49.716;9.266;2023-01-29T06:26:24;101542.94;;;1.50;62.46
17060;BME280;8646;49.716;9.266;2023-01-29T06:29:27;101552.69;;;1.48;62.28
17060;BME280;8646;49.716;9.266;2023-01-29T06:32:29;101529.38;;;1.33;62.93
17060;BME280;8646;49.716;9.266;2023-01-29T06:35:32;101524.78;;;1.23;63.91
17060;BME280;8646;49.716;9.266;2023-01-29T06:38:36;101525.75;;;1.28;64.11
17060;BME280;8646;49.716;9.266;2023-01-29T06:41:39;101515.13;;;1.30;64.25
17060;BME280;8646;49.716;9.266;2023-01-29T06:44:42;101516.00;;;1.32;64.33
17060;BME280;8646;49.716;9.266;2023-01-29T06:47:46;101511.56;;;1.32;64.45
17060;BME280;8646;49.716;9.266;2023-01-29T06:50:49;101508.88;;;1.31;64.43
17060;BME280;8646;49.716;9.266;2023-01-29T06:53:53;101505.31;;;1.30;64.62
17060;BME280;8646;49.716;9.266;2023-01-29T06:56:56;101502.59;;;1.26;64.50
17060;BME280;8646;49.716;9.266;2023-01-29T06:59:59;101537.47;;;1.41;64.45
17060;BME280;8646;49.716;9.266;2023-01-29T07:03:03;101536.56;;;1.39;64.46
17060;BME280;8646;49.716;9.266;2023-01-29T07:06:06;101533.84;;;1.34;64.53
17060;BME280;8646;49.716;9.266;2023-01-29T07:09:12;101532.03;;;1.33;64.80
17060;BME280;8646;49.716;9.266;2023-01-29T07:12:15;101529.44;;;1.36;64.85
17060;BME280;8646;49.716;9.266;2023-01-29T07:15:17;101522.31;;;1.38;65.08
17060;BME280;8646;49.716;9.266;2023-01-29T07:18:21;101538.41;;;1.43;65.21
17060;BME280;8646;49.716;9.266;2023-01-29T07:21:24;101548.28;;;1.50;65.13
17060;BME280;8646;49.716;9.266;2023-01-29T07:24:28;101537.56;;;1.45;65.00
17060;BME280;8646;49.716;9.266;2023-01-29T07:27:31;101552.78;;;1.54;65.11
17060;BME280;8646;49.716;9.266;2023-01-29T07:30:34;101550.19;;;1.60;64.70
17060;BME280;8646;49.716;9.266;2023-01-29T07:33:37;101544.88;;;1.60;64.64
17060;BME280;8646;49.716;9.266;2023-01-29T07:36:40;101544.88;;;1.62;64.73
17060;BME280;8646;49.716;9.266;2023-01-29T07:39:44;101538.66;;;1.63;64.91
17060;BME280;8646;49.716;9.266;2023-01-29T07:42:48;101534.19;;;1.60;64.75
17060;BME280;8646;49.716;9.266;2023-01-29T07:45:51;101540.44;;;1.62;65.05
17060;BME280;8646;49.716;9.266;2023-01-29T07:48:53;101550.22;;;1.63;64.88
17060;BME280;8646;49.716;9.266;2023-01-29T07:51:56;101540.38;;;1.58;64.58
17060;BME280;8646;49.716;9.266;2023-01-29T07:55:00;101549.41;;;1.67;64.32
17060;BME280;8646;49.716;9.266;2023-01-29T07:58:03;101555.59;;;1.66;64.30
17060;BME280;8646;49.716;9.266;2023-01-29T08:01:06;101556.47;;;1.65;63.91
17060;BME280;8646;49.716;9.266;2023-01-29T08:04:09;101562.69;;;1.64;63.57
17060;BME280;8646;49.716;9.266;2023-01-29T08:07:12;101552.03;;;1.64;63.94
17060;BME280;8646;49.716;9.266;2023-01-29T08:10:16;101554.75;;;1.69;63.22
17060;BME280;8646;49.716;9.266;2023-01-29T08:13:20;101552.16;;;1.75;62.85
17060;BME280;8646;49.716;9.266;2023-01-29T08:16:22;101549.53;;;1.79;63.01
17060;BME280;8646;49.716;9.266;2023-01-29T08:19:25;101547.91;;;1.90;62.31
17060;BME280;8646;49.716;9.266;2023-01-29T08:22:28;101551.53;;;1.94;62.85
17060;BME280;8646;49.716;9.266;2023-01-29T08:25:33;101561.44;;;2.06;63.00
17060;BME280;8646;49.716;9.266;2023-01-29T08:28:36;101559.69;;;2.08;62.73
17060;BME280;8646;49.716;9.266;2023-01-29T08:31:40;101574.81;;;2.09;62.41
17060;BME280;8646;49.716;9.266;2023-01-29T08:34:42;101580.09;;;2.04;61.50
17060;BME280;8646;49.716;9.266;2023-01-29T08:37:51;101571.81;;;1.81;61.98
17060;BME280;8646;49.716;9.266;2023-01-29T08:40:55;101592.41;;;1.90;62.13
17060;BME280;8646;49.716;9.266;2023-01-29T08:43:58;101592.47;;;1.95;61.91
17060;BME280;8646;49.716;9.266;2023-01-29T08:47:02;101593.41;;;2.00;61.61
17060;BME280;8646;49.716;9.266;2023-01-29T08:50:07;101583.72;;;2.08;61.31
17060;BME280;8646;49.716;9.266;2023-01-29T08:53:09;101574.94;;;2.19;61.76
17060;BME280;8646;49.716;9.266;2023-01-29T08:56:14;101560.06;;;2.43;61.88
17060;BME280;8646;49.716;9.266;2023-01-29T08:59:17;101529.09;;;2.66;61.33
17060;BME280;8646;49.716;9.266;2023-01-29T09:02:20;101507.84;;;2.83;60.54
17060;BME280;8646;49.716;9.266;2023-01-29T09:05:23;101505.34;;;3.07;60.45
17060;BME280;8646;49.716;9.266;2023-01-29T09:08:25;101509.03;;;3.27;60.41
17060;BME280;8646;49.716;9.266;2023-01-29T09:11:30;101506.44;;;3.39;60.10
17060;BME280;8646;49.716;9.266;2023-01-29T09:14:32;101504.66;;;3.49;59.57
17060;BME280;8646;49.716;9.266;2023-01-29T09:17:36;101510.06;;;3.55;58.67
17060;BME280;8646;49.716;9.266;2023-01-29T09:20:38;101513.66;;;3.62;58.75
17060;BME280;8646;49.716;9.266;2023-01-29T09:23:41;101514.59;;;3.70;58.41
17060;BME280;8646;49.716;9.266;2023-01-29T09:26:45;101521.75;;;3.81;58.22
17060;BME280;8646;49.716;9.266;2023-01-29T09:29:48;101529.84;;;3.89;57.45
17060;BME280;8646;49.716;9.266;2023-01-29T09:32:51;101534.28;;;3.90;57.29
17060;BME280;8646;49.716;9.266;2023-01-29T09:35:55;101534.31;;;3.87;57.21
17060;BME280;8646;49.716;9.266;2023-01-29T09:38:58;101539.63;;;3.84;56.69
17060;BME280;8646;49.716;9.266;2023-01-29T09:42:08;101543.19;;;3.77;56.95
17060;BME280;8646;49.716;9.266;2023-01-29T09:45:15;101544.94;;;3.75;56.82
17060;BME280;8646;49.716;9.266;2023-01-29T09:48:26;101545.00;;;3.81;57.04
17060;BME280;8646;49.716;9.266;2023-01-29T09:51:34;101561.94;;;3.84;56.76
17060;BME280;8646;49.716;9.266;2023-01-29T09:54:48;101561.94;;;3.81;55.68
17060;BME280;8646;49.716;9.266;2023-01-29T09:57:56;101565.44;;;3.67;55.59
17060;BME280;8646;49.716;9.266;2023-01-29T10:01:07;101580.59;;;3.62;56.14
17060;BME280;8646;49.716;9.266;2023-01-29T10:08:04;101588.66;;;3.68;54.85
17060;BME280;8646;49.716;9.266;2023-01-29T10:11:16;101582.38;;;3.63;53.49
17060;BME280;8646;49.716;9.266;2023-01-29T10:14:29;101585.72;;;3.28;54.35
17060;BME280;8646;49.716;9.266;2023-01-29T10:17:48;101566.06;;;3.20;54.46
17060;BME280;8646;49.716;9.266;2023-01-29T10:20:57;101571.97;;;2.80;55.84
17060;BME280;8646;49.716;9.266;2023-01-29T10:24:15;101560.31;;;2.72;56.11
17060;BME280;8646;49.716;9.266;2023-01-29T10:27:20;101558.59;;;2.80;56.55
17060;BME280;8646;49.716;9.266;2023-01-29T10:30:30;101556.84;;;2.82;57.12
17060;BME280;8646;49.716;9.266;2023-01-29T10:33:38;101548.03;;;2.92;56.32
17060;BME280;8646;49.716;9.266;2023-01-29T10:37:11;101528.34;;;2.85;57.25
17060;BME280;8646;49.716;9.266;2023-01-29T10:40:20;101526.63;;;2.95;57.66
17060;BME280;8646;49.716;9.266;2023-01-29T10:43:31;101506.16;;;2.95;57.57
17060;BME280;8646;49.716;9.266;2023-01-29T10:46:55;101505.38;;;3.13;56.56
17060;BME280;8646;49.716;9.266;2023-01-29T10:50:17;101496.28;;;2.87;55.95
17060;BME280;8646;49.716;9.266;2023-01-29T10:53:37;101500.78;;;2.94;55.96
17060;BME280;8646;49.716;9.266;2023-01-29T10:56:52;101492.72;;;2.86;56.06
17060;BME280;8646;49.716;9.266;2023-01-29T11:00:07;101487.31;;;2.76;56.50
17060;BME280;8646;49.716;9.266;2023-01-29T11:03:17;101480.94;;;2.63;56.54
17060;BME280;8646;49.716;9.266;2023-01-29T11:06:30;101483.66;;;2.69;57.17
17060;BME280;8646;49.716;9.266;2023-01-29T11:09:37;101481.97;;;2.79;57.50
17060;BME280;8646;49.716;9.266;2023-01-29T11:12:41;101475.88;;;3.01;56.16
17060;BME280;8646;49.716;9.266;2023-01-29T11:15:44;101477.72;;;3.11;55.90
17060;BME280;8646;49.716;9.266;2023-01-29T11:18:54;101472.44;;;3.22;56.33
17060;BME280;8646;49.716;9.266;2023-01-29T11:21:59;101451.97;;;3.34;56.19
17060;BME280;8646;49.716;9.266;2023-01-29T11:25:15;101446.69;;;3.53;56.10
17060;BME280;8646;49.716;9.266;2023-01-29T11:28:34;101444.94;;;3.61;56.06
17060;BME280;8646;49.716;9.266;2023-01-29T11:31:37;101430.69;;;3.69;55.94
17060;BME280;8646;49.716;9.266;2023-01-29T11:35:00;101415.56;;;3.80;55.82
17060;BME280;8646;49.716;9.266;2023-01-29T11:38:14;101411.13;;;3.93;56.02
17060;BME280;8646;49.716;9.266;2023-01-29T11:41:19;101407.53;;;4.00;55.45
17060;BME280;8646;49.716;9.266;2023-01-29T11:44:28;101407.56;;;3.96;54.71
17060;BME280;8646;49.716;9.266;2023-01-29T11:47:31;101403.09;;;3.95;55.32
17060;BME280;8646;49.716;9.266;2023-01-29T11:50:35;101384.34;;;3.96;54.57
17060;BME280;8646;49.716;9.266;2023-01-29T11:53:39;101378.06;;;3.90;54.60
17060;BME280;8646;49.716;9.266;2023-01-29T11:56:45;101373.63;;;3.96;54.98
17060;BME280;8646;49.716;9.266;2023-01-29T11:59:50;101366.47;;;4.07;54.89
17060;BME280;8646;49.716;9.266;2023-01-29T12:02:56;101371.81;;;4.15;54.77
17060;BME280;8646;49.716;9.266;2023-01-29T12:06:07;101353.09;;;4.04;54.40
17060;BME280;8646;49.716;9.266;2023-01-29T12:09:16;101354.84;;;4.23;52.37
17060;BME280;8646;49.716;9.266;2023-01-29T12:12:35;101339.69;;;4.01;53.47
17060;BME280;8646;49.716;9.266;2023-01-29T12:15:40;101341.50;;;4.04;53.56
17060;BME280;8646;49.716;9.266;2023-01-29T12:18:48;101335.22;;;4.00;53.85
17060;BME280;8646;49.716;9.266;2023-01-29T12:21:58;101338.81;;;4.11;53.07
17060;BME280;8646;49.716;9.266;2023-01-29T12:25:10;101324.53;;;3.97;52.91
17060;BME280;8646;49.716;9.266;2023-01-29T12:28:45;101338.78;;;3.98;53.59
17060;BME280;8646;49.716;9.266;2023-01-29T12:31:58;101343.28;;;3.94;53.67
17060;BME280;8646;49.716;9.266;2023-01-29T12:35:10;101336.13;;;3.81;53.67
17060;BME280;8646;49.716;9.266;2023-01-29T12:38:17;101335.22;;;3.83;54.32
17060;BME280;8646;49.716;9.266;2023-01-29T12:41:29;101330.78;;;3.81;54.39
17060;BME280;8646;49.716;9.266;2023-01-29T12:44:38;101328.97;;;3.92;53.84
17060;BME280;8646;49.716;9.266;2023-01-29T12:47:45;101318.28;;;3.86;54.10
17060;BME280;8646;49.716;9.266;2023-01-29T12:50:51;101309.34;;;3.93;53.43
17060;BME280;8646;49.716;9.266;2023-01-29T12:53:59;101312.91;;;3.95;53.79
17060;BME280;8646;49.716;9.266;2023-01-29T12:57:08;101320.06;;;4.11;54.03
17060;BME280;8646;49.716;9.266;2023-01-29T13:00:14;101322.72;;;4.16;53.69
17060;BME280;8646;49.716;9.266;2023-01-29T13:03:23;101306.66;;;4.17;54.53
17060;BME280;8646;49.716;9.266;2023-01-29T13:06:29;101297.69;;;4.32;55.15
17060;BME280;8646;49.716;9.266;2023-01-29T13:09:36;101299.44;;;4.51;55.57
17060;BME280;8646;49.716;9.266;2023-01-29T13:12:50;101286.00;;;4.68;53.56
17060;BME280;8646;49.716;9.266;2023-01-29T13:15:55;101289.50;;;4.79;52.80
17060;BME280;8646;49.716;9.266;2023-01-29T13:19:03;101282.38;;;4.77;52.82
17060;BME280;8646;49.716;9.266;2023-01-29T13:22:15;101273.47;;;4.66;53.45
17060;BME280;8646;49.716;9.266;2023-01-29T13:25:21;101266.31;;;4.63;53.27
17060;BME280;8646;49.716;9.266;2023-01-29T13:28:25;101252.97;;;4.49;53.65
17060;BME280;8646;49.716;9.266;2023-01-29T13:31:29;101248.50;;;4.47;52.53
17060;BME280;8646;49.716;9.266;2023-01-29T13:34:35;101251.28;;;4.15;53.19
17060;BME280;8646;49.716;9.266;2023-01-29T13:37:41;101243.25;;;4.01;54.46
17060;BME280;8646;49.716;9.266;2023-01-29T13:40:50;101244.19;;;3.97;54.49
17060;BME280;8646;49.716;9.266;2023-01-29T13:43:53;101243.28;;;3.89;54.78
17060;BME280;8646;49.716;9.266;2023-01-29T13:46:57;101241.53;;;3.80;55.26
17060;BME280;8646;49.716;9.266;2023-01-29T13:50:03;101222.75;;;3.74;55.02
17060;BME280;8646;49.716;9.266;2023-01-29T13:53:19;101240.59;;;3.74;55.46
17060;BME280;8646;49.716;9.266;2023-01-29T13:56:41;101234.38;;;3.60;56.10
17060;BME280;8646;49.716;9.266;2023-01-29T13:59:51;101234.38;;;3.69;56.01
17060;BME280;8646;49.716;9.266;2023-01-29T14:06:52;101214.72;;;3.76;56.27
17060;BME280;8646;49.716;9.266;2023-01-29T14:10:13;101231.66;;;4.02;56.33
17060;BME280;8646;49.716;9.266;2023-01-29T14:13:33;101238.78;;;4.08;56.23
17060;BME280;8646;49.716;9.266;2023-01-29T14:16:37;101233.44;;;4.08;55.87
17060;BME280;8646;49.716;9.266;2023-01-29T14:19:46;101233.44;;;4.03;55.68
17060;BME280;8646;49.716;9.266;2023-01-29T14:22:53;101232.56;;;4.01;55.78
17060;BME280;8646;49.716;9.266;2023-01-29T14:26:00;101233.44;;;3.91;56.19
17060;BME280;8646;49.716;9.266;2023-01-29T14:29:16;101230.78;;;3.88;56.32
17060;BME280;8646;49.716;9.266;2023-01-29T14:32:40;101229.91;;;3.72;56.69
17060;BME280;8646;49.716;9.266;2023-01-29T14:35:48;101231.69;;;3.63;56.64
17060;BME280;8646;49.716;9.266;2023-01-29T14:38:52;101206.72;;;3.49;57.03
17060;BME280;8646;49.716;9.266;2023-01-29T14:41:56;101219.19;;;3.53;57.37
17060;BME280;8646;49.716;9.266;2023-01-29T14:45:07;101206.72;;;3.52;57.77
17060;BME280;8646;49.716;9.266;2023-01-29T14:48:36;101204.03;;;3.45;57.52
17060;BME280;8646;49.716;9.266;2023-01-29T14:51:42;101209.38;;;3.42;57.96
17060;BME280;8646;49.716;9.266;2023-01-29T14:54:46;101201.34;;;3.35;58.27
17060;BME280;8646;49.716;9.266;2023-01-29T14:57:50;101202.25;;;3.29;58.38
17060;BME280;8646;49.716;9.266;2023-01-29T15:00:56;101196.91;;;3.22;58.76
17060;BME280;8646;49.716;9.266;2023-01-29T15:04:02;101199.56;;;3.14;59.01
17060;BME280;8646;49.716;9.266;2023-01-29T15:07:14;101195.09;;;3.10;59.38
17060;BME280;8646;49.716;9.266;2023-01-29T15:10:24;101200.41;;;3.02;59.87
17060;BME280;8646;49.716;9.266;2023-01-29T15:13:36;101198.63;;;2.97;59.93
17060;BME280;8646;49.716;9.266;2023-01-29T15:16:47;101203.97;;;2.91;60.23
17060;BME280;8646;49.716;9.266;2023-01-29T15:19:53;101196.84;;;2.84;60.43
17060;BME280;8646;49.716;9.266;2023-01-29T15:22:57;101200.38;;;2.74;60.61
17060;BME280;8646;49.716;9.266;2023-01-29T15:26:03;101203.88;;;2.68;60.83
17060;BME280;8646;49.716;9.266;2023-01-29T15:29:21;101197.66;;;2.63;60.94
17060;BME280;8646;49.716;9.266;2023-01-29T15:32:27;101200.28;;;2.51;61.27
17060;BME280;8646;49.716;9.266;2023-01-29T15:35:34;101200.25;;;2.46;61.46
17060;BME280;8646;49.716;9.266;2023-01-29T15:38:37;101210.94;;;2.46;61.61
17060;BME280;8646;49.716;9.266;2023-01-29T15:41:40;101210.94;;;2.40;61.83
17060;BME280;8646;49.716;9.266;2023-01-29T15:44:44;101182.34;;;2.21;62.13
17060;BME280;8646;49.716;9.266;2023-01-29T15:47:49;101205.50;;;2.25;62.71
17060;BME280;8646;49.716;9.266;2023-01-29T15:50:53;101191.19;;;2.12;63.00
17060;BME280;8646;49.716;9.266;2023-01-29T15:53:58;101201.88;;;2.14;62.77
17060;BME280;8646;49.716;9.266;2023-01-29T15:57:02;101195.63;;;2.07;63.24
17060;BME280;8646;49.716;9.266;2023-01-29T16:00:06;101192.00;;;1.96;63.69
17060;BME280;8646;49.716;9.266;2023-01-29T16:03:15;101195.53;;;1.90;63.81
17060;BME280;8646;49.716;9.266;2023-01-29T16:06:19;101192.81;;;1.83;64.22
17060;BME280;8646;49.716;9.266;2023-01-29T16:09:24;101196.34;;;1.77;64.30
17060;BME280;8646;49.716;9.266;2023-01-29T16:12:27;101200.72;;;1.71;64.77
17060;BME280;8646;49.716;9.266;2023-01-29T16:15:32;101203.34;;;1.63;65.21
17060;BME280;8646;49.716;9.266;2023-01-29T16:18:37;101197.94;;;1.54;65.33
17060;BME280;8646;49.716;9.266;2023-01-29T16:22:01;101194.34;;;1.46;65.68
17060;BME280;8646;49.716;9.266;2023-01-29T16:25:07;101197.81;;;1.37;65.83
17060;BME280;8646;49.716;9.266;2023-01-29T16:28:12;101195.09;;;1.30;66.26
17060;BME280;8646;49.716;9.266;2023-01-29T16:31:20;101192.34;;;1.21;66.37
17060;BME280;8646;49.716;9.266;2023-01-29T16:34:27;101159.25;;;0.97;66.63
17060;BME280;8646;49.716;9.266;2023-01-29T16:37:32;101194.00;;;1.09;67.18
17060;BME280;8646;49.716;9.266;2023-01-29T16:40:37;101181.50;;;1.02;67.40
17060;BME280;8646;49.716;9.266;2023-01-29T16:43:46;101172.44;;;0.85;67.90
17060;BME280;8646;49.716;9.266;2023-01-29T16:46:49;101175.97;;;0.84;67.84
17060;BME280;8646;49.716;9.266;2023-01-29T16:49:55;101180.41;;;0.81;68.11
17060;BME280;8646;49.716;9.266;2023-01-29T16:53:00;101189.25;;;0.78;68.78